Terminal Aerodrome Forecast
Issued by NWS

Home | Current Version | Previous Version | Text Only | Print | Product List | Glossary On
Versions: 1 2 3 4 5 6 7 8 9 10 11 12
000
FTUS42 TJSJ 050525
TAFIST
TAF
TIST 050525Z 0506/0606 09008KT P6SM VCSH FEW025 SCT070
     FM051300 13012KT P6SM SCT025
     FM052230 10008KT P6SM FEW030=

USA.gov is the U.S. government's official web portal to all federal, state and local government web resources and services.